Time;durP1;ratioP1;P1;durP2;ratioP2;P2;SDS_P1;SDS_P2;PMS_P1;PMS_P2;Temp;Humidity;BMP_temperature;BMP_pressure;BME280_temperature;BME280_humidity;BME280_pressure;Samples;Min_cycle;Max_cycle;Signal;HPM_P1;HPM_P2
2022/02/07 00:01:00;;;;;;;22.08;9.75;;;;;;;;;;4982764;28;20114;-71
2022/02/07 00:06:02;;;;;;;;;;;;;;;;;;4983918;28;20120;-71
2022/02/07 00:08:28;;;;;;;28.00;10.90;;;;;;;;;;4982540;28;19960;-70
2022/02/07 00:10:54;;;;;;;22.88;10.13;;;;;;;;;;4983915;28;20046;-70
2022/02/07 00:13:20;;;;;;;22.10;8.90;;;;;;;;;;4986389;28;20035;-71
2022/02/07 00:15:46;;;;;;;13.48;6.72;;;;;;;;;;4986148;28;20464;-71
2022/02/07 00:18:13;;;;;;;10.55;6.95;;;;;;;;;;4982296;28;20038;-71
2022/02/07 00:20:39;;;;;;;12.50;6.07;;;;;;;;;;4984619;28;20640;-70
2022/02/07 00:23:06;;;;;;;14.43;6.35;;;;;;;;;;4988410;28;20054;-71
2022/02/07 00:25:32;;;;;;;12.35;6.50;;;;;;;;;;4980229;28;20050;-71
2022/02/07 00:27:58;;;;;;;18.40;5.88;;;;;;;;;;4993072;28;20029;-71
2022/02/07 00:30:25;;;;;;;14.60;6.22;;;;;;;;;;4986400;28;20153;-71
2022/02/07 00:32:51;;;;;;;14.07;5.93;;;;;;;;;;4982663;28;20033;-70
2022/02/07 00:35:20;;;;;;;11.52;5.90;;;;;;;;;;4985197;28;20035;-70
2022/02/07 00:37:48;;;;;;;15.65;5.55;;;;;;;;;;5003260;28;20034;-71
2022/02/07 00:42:53;;;;;;;11.68;4.28;;;;;;;;;;4979210;28;20027;-71
2022/02/07 00:45:38;;;;;;;8.48;4.38;;;;;;;;;;4994105;28;20046;-71
2022/02/07 00:48:05;;;;;;;15.02;4.95;;;;;;;;;;4981976;28;20026;-70
2022/02/07 00:50:33;;;;;;;12.88;4.30;;;;;;;;;;4984796;28;20039;-70
2022/02/07 00:52:59;;;;;;;14.38;4.65;;;;;;;;;;4978791;28;20573;-70
2022/02/07 00:55:26;;;;;;;14.27;4.18;;;;;;;;;;4993381;28;20164;-70
2022/02/07 00:57:52;;;;;;;9.60;3.75;;;;;;;;;;4981647;28;20038;-70
2022/02/07 01:00:18;;;;;;;12.95;5.65;;;;;;;;;;4984949;28;20078;-71
2022/02/07 01:02:45;;;;;;;13.68;4.72;;;;;;;;;;4985137;28;20098;-71
2022/02/07 01:05:12;;;;;;;13.95;4.95;;;;;;;;;;4983821;28;20023;-70
2022/02/07 01:07:38;;;;;;;17.10;5.80;;;;;;;;;;4987162;28;20088;-71
2022/02/07 01:10:06;;;;;;;32.08;11.65;;;;;;;;;;4985575;28;20023;-71
2022/02/07 01:15:13;;;;;;;26.40;9.98;;;;;;;;;;4978706;28;20069;-71
2022/02/07 01:48:10;;;;;;;15.60;4.80;;;;;;;;;;4979728;28;20073;-71
2022/02/07 01:55:49;;;;;;;7.85;3.58;;;;;;;;;;4980211;28;20125;-70
2022/02/07 01:58:16;;;;;;;11.27;3.55;;;;;;;;;;4977968;28;20034;-70
2022/02/07 02:00:42;;;;;;;9.23;3.97;;;;;;;;;;4996719;28;20498;-70
2022/02/07 02:03:09;;;;;;;16.50;4.00;;;;;;;;;;4981370;28;20032;-70
2022/02/07 02:05:37;;;;;;;12.40;4.20;;;;;;;;;;4979857;28;20085;-71
2022/02/07 02:08:07;;;;;;;13.93;4.80;;;;;;;;;;4982714;28;20014;-71
2022/02/07 02:10:34;;;;;;;16.52;6.97;;;;;;;;;;4985665;28;20041;-72
2022/02/07 02:13:08;;;;;;;18.02;8.52;;;;;;;;;;4984481;28;20034;-71
2022/02/07 02:16:01;;;;;;;15.48;8.13;;;;;;;;;;4985617;28;20428;-70
2022/02/07 02:38:19;;;;;;;13.15;4.50;;;;;;;;;;4996837;28;20606;-71
2022/02/07 02:46:20;;;;;;;12.77;4.13;;;;;;;;;;4979787;28;20078;-71
2022/02/07 02:48:46;;;;;;;12.93;3.50;;;;;;;;;;4979573;28;20115;-70
2022/02/07 02:51:12;;;;;;;13.48;4.40;;;;;;;;;;4997884;28;20092;-71
2022/02/07 02:53:38;;;;;;;8.60;3.75;;;;;;;;;;4981318;28;20033;-70
2022/02/07 02:56:05;;;;;;;17.70;4.53;;;;;;;;;;4997409;28;20027;-71
2022/02/07 02:58:31;;;;;;;10.05;3.13;;;;;;;;;;4982847;28;20137;-71
2022/02/07 03:00:57;;;;;;;11.02;4.25;;;;;;;;;;4986851;28;20041;-70
2022/02/07 03:03:23;;;;;;;12.27;3.88;;;;;;;;;;4986513;28;20109;-70
2022/02/07 03:05:49;;;;;;;9.90;3.35;;;;;;;;;;4986175;28;20066;-71
2022/02/07 03:08:16;;;;;;;5.00;3.22;;;;;;;;;;5003207;28;20117;-71
2022/02/07 03:11:21;;;;;;;7.32;3.30;;;;;;;;;;4986419;28;20050;-71
2022/02/07 03:18:55;;;;;;;9.23;3.08;;;;;;;;;;4983631;28;20536;-71
2022/02/07 03:21:21;;;;;;;8.38;3.45;;;;;;;;;;4985411;28;20046;-72
2022/02/07 03:23:48;;;;;;;11.10;2.78;;;;;;;;;;4991510;28;20046;-69
2022/02/07 03:26:17;;;;;;;10.50;3.67;;;;;;;;;;4980958;28;20485;-71
2022/02/07 03:28:43;;;;;;;11.55;3.33;;;;;;;;;;4987068;28;20672;-70
2022/02/07 03:31:09;;;;;;;13.80;3.88;;;;;;;;;;5007392;28;20030;-70
2022/02/07 03:33:39;;;;;;;8.40;2.83;;;;;;;;;;4983248;28;20441;-69
2022/02/07 03:36:05;;;;;;;10.55;3.22;;;;;;;;;;4984658;28;20031;-70
2022/02/07 03:38:31;;;;;;;10.10;3.22;;;;;;;;;;4988896;28;20053;-71
2022/02/07 03:40:57;;;;;;;11.10;4.15;;;;;;;;;;4980375;28;20042;-70
2022/02/07 03:43:24;;;;;;;8.95;2.90;;;;;;;;;;4988136;28;20032;-70
2022/02/07 03:45:50;;;;;;;12.55;3.38;;;;;;;;;;4982338;28;20030;-70
2022/02/07 03:48:16;;;;;;;7.60;2.78;;;;;;;;;;4985894;28;20357;-70
2022/02/07 03:50:42;;;;;;;3.30;2.28;;;;;;;;;;4983997;28;20058;-70
2022/02/07 03:53:08;;;;;;;8.00;2.38;;;;;;;;;;4984594;28;20045;-70
2022/02/07 03:55:35;;;;;;;9.68;3.20;;;;;;;;;;4986446;28;20022;-70
2022/02/07 03:58:01;;;;;;;8.80;3.20;;;;;;;;;;4980140;28;20039;-71
2022/02/07 04:00:27;;;;;;;8.85;3.17;;;;;;;;;;4982700;28;20042;-71
2022/02/07 04:02:54;;;;;;;11.88;4.13;;;;;;;;;;5004211;28;20096;-72
2022/02/07 04:07:46;;;;;;;8.07;3.08;;;;;;;;;;4981385;28;20023;-70
2022/02/07 04:10:13;;;;;;;16.63;2.95;;;;;;;;;;4991354;28;20057;-70
2022/02/07 04:12:42;;;;;;;14.35;3.42;;;;;;;;;;4976537;28;20082;-70
2022/02/07 04:15:14;;;;;;;10.55;4.15;;;;;;;;;;4979484;28;20077;-70
2022/02/07 04:17:46;;;;;;;13.57;3.92;;;;;;;;;;4983604;28;21173;-70
2022/02/07 04:20:13;;;;;;;10.05;3.42;;;;;;;;;;5003044;28;20120;-70
2022/02/07 04:22:39;;;;;;;6.03;2.83;;;;;;;;;;4988743;28;20026;-71
2022/02/07 04:25:05;;;;;;;11.45;3.40;;;;;;;;;;4985499;28;20465;-70
2022/02/07 04:27:31;;;;;;;12.20;4.05;;;;;;;;;;4983476;28;20459;-72
2022/02/07 04:29:57;;;;;;;11.68;3.38;;;;;;;;;;4983377;28;20029;-70
2022/02/07 04:32:23;;;;;;;11.52;2.95;;;;;;;;;;5002013;28;20781;-70
2022/02/07 04:34:49;;;;;;;9.60;3.20;;;;;;;;;;4982898;28;20125;-70
2022/02/07 04:37:17;;;;;;;7.20;3.03;;;;;;;;;;4986790;28;20501;-70
2022/02/07 04:39:43;;;;;;;6.15;3.28;;;;;;;;;;4984683;28;20033;-71
2022/02/07 04:42:12;;;;;;;13.88;3.13;;;;;;;;;;4983166;28;20039;-70
2022/02/07 04:44:48;;;;;;;14.25;3.70;;;;;;;;;;4978141;28;20026;-70
2022/02/07 04:55:12;;;;;;;9.75;3.03;;;;;;;;;;4988597;28;20504;-71
2022/02/07 05:02:53;;;;;;;14.32;3.30;;;;;;;;;;4985084;28;20034;-71
2022/02/07 05:16:02;;;;;;;11.77;3.20;;;;;;;;;;4984277;28;20078;-71
2022/02/07 05:18:30;;;;;;;6.00;2.65;;;;;;;;;;4978762;28;20113;-70
2022/02/07 05:20:57;;;;;;;12.38;3.03;;;;;;;;;;4986065;28;20026;-70
2022/02/07 05:23:23;;;;;;;11.88;4.28;;;;;;;;;;4983109;28;20029;-71
2022/02/07 05:25:49;;;;;;;15.18;3.25;;;;;;;;;;4985224;28;20034;-70
2022/02/07 05:28:15;;;;;;;10.48;3.72;;;;;;;;;;4982992;28;20033;-70
2022/02/07 05:30:41;;;;;;;8.98;2.83;;;;;;;;;;4982657;28;20030;-71
2022/02/07 05:33:07;;;;;;;10.38;3.03;;;;;;;;;;4981085;28;20031;-70
2022/02/07 05:35:33;;;;;;;15.65;4.47;;;;;;;;;;4983235;28;20073;-71
2022/02/07 05:38:00;;;;;;;14.90;3.85;;;;;;;;;;5003955;28;20504;-71
2022/02/07 05:40:35;;;;;;;17.15;4.30;;;;;;;;;;4987961;28;20544;-70
2022/02/07 05:43:01;;;;;;;13.68;3.10;;;;;;;;;;4984746;28;20615;-71
2022/02/07 05:45:27;;;;;;;13.82;4.03;;;;;;;;;;4979090;28;20034;-71
2022/02/07 05:47:54;;;;;;;12.55;4.85;;;;;;;;;;4976925;28;20521;-71
2022/02/07 05:50:20;;;;;;;9.30;4.07;;;;;;;;;;4986003;28;20031;-71
2022/02/07 05:52:46;;;;;;;12.07;2.90;;;;;;;;;;4979113;28;20106;-71
2022/02/07 05:55:12;;;;;;;9.60;3.65;;;;;;;;;;4988473;28;20081;-70
2022/02/07 05:57:38;;;;;;;11.52;3.38;;;;;;;;;;4988639;28;20018;-71
2022/02/07 06:00:06;;;;;;;13.32;5.40;;;;;;;;;;4980724;28;20540;-71
2022/02/07 06:02:32;;;;;;;19.60;4.03;;;;;;;;;;4996027;28;20034;-70
2022/02/07 06:04:58;;;;;;;10.73;4.07;;;;;;;;;;4998430;28;20035;-71
2022/02/07 06:07:24;;;;;;;11.25;4.40;;;;;;;;;;4975963;28;20031;-71
2022/02/07 06:09:50;;;;;;;9.93;3.88;;;;;;;;;;4978977;28;20027;-72
2022/02/07 06:12:16;;;;;;;11.77;3.22;;;;;;;;;;4994822;28;20055;-71
2022/02/07 06:14:43;;;;;;;12.73;3.00;;;;;;;;;;4984435;28;20036;-71
2022/02/07 06:17:11;;;;;;;11.65;4.78;;;;;;;;;;4975739;28;20037;-71
2022/02/07 06:19:37;;;;;;;15.07;3.90;;;;;;;;;;4979502;28;20139;-71
2022/02/07 06:22:03;;;;;;;9.68;3.40;;;;;;;;;;4978677;28;20027;-71
2022/02/07 06:24:29;;;;;;;17.52;4.05;;;;;;;;;;4984095;28;20030;-71
2022/02/07 06:26:56;;;;;;;18.10;3.20;;;;;;;;;;4974527;28;20038;-71
2022/02/07 06:29:23;;;;;;;10.00;3.13;;;;;;;;;;4973684;28;20031;-71
2022/02/07 06:31:49;;;;;;;15.48;3.72;;;;;;;;;;4977612;28;20477;-71
2022/02/07 06:34:15;;;;;;;15.60;3.45;;;;;;;;;;4982230;28;20030;-71
2022/02/07 06:36:41;;;;;;;23.05;3.45;;;;;;;;;;4975321;28;20046;-70
2022/02/07 06:39:07;;;;;;;9.52;4.10;;;;;;;;;;4989468;28;20172;-70
2022/02/07 06:41:34;;;;;;;12.68;3.47;;;;;;;;;;5004710;28;20092;-70
2022/02/07 06:44:00;;;;;;;10.60;3.45;;;;;;;;;;4979645;28;20585;-72
2022/02/07 06:46:26;;;;;;;12.10;4.18;;;;;;;;;;4980218;28;20053;-71
2022/02/07 06:48:52;;;;;;;12.00;3.30;;;;;;;;;;4982508;28;20061;-71
2022/02/07 06:51:18;;;;;;;10.70;4.55;;;;;;;;;;4990769;28;20050;-70
2022/02/07 06:53:44;;;;;;;12.20;3.88;;;;;;;;;;5002564;28;20030;-71
2022/02/07 06:56:11;;;;;;;11.90;3.30;;;;;;;;;;5002024;28;20046;-72
2022/02/07 06:58:37;;;;;;;13.93;3.95;;;;;;;;;;4983456;28;20046;-71
2022/02/07 07:01:05;;;;;;;9.85;3.30;;;;;;;;;;4984815;28;20057;-71
2022/02/07 07:03:33;;;;;;;12.90;3.50;;;;;;;;;;4981458;28;20029;-72
2022/02/07 07:06:00;;;;;;;9.80;3.15;;;;;;;;;;4985590;28;20018;-70
2022/02/07 07:08:26;;;;;;;9.48;4.10;;;;;;;;;;4989334;28;20037;-71
2022/02/07 07:10:56;;;;;;;12.38;3.53;;;;;;;;;;4978246;28;20524;-71
2022/02/07 07:13:27;;;;;;;6.13;3.35;;;;;;;;;;4986968;28;20054;-70
2022/02/07 07:16:00;;;;;;;7.60;3.08;;;;;;;;;;4979507;28;20027;-70
2022/02/07 07:18:26;;;;;;;7.55;3.10;;;;;;;;;;4983611;28;20022;-71
2022/02/07 07:20:52;;;;;;;5.38;2.80;;;;;;;;;;4984846;28;20548;-72
2022/02/07 07:23:19;;;;;;;4.45;2.38;;;;;;;;;;4983572;28;20027;-70
2022/02/07 07:25:46;;;;;;;4.93;2.45;;;;;;;;;;4981270;28;20041;-70
2022/02/07 07:28:15;;;;;;;7.45;2.28;;;;;;;;;;4982978;28;20025;-70
2022/02/07 07:30:54;;;;;;;5.90;2.20;;;;;;;;;;4999525;28;20038;-71
2022/02/07 07:33:24;;;;;;;3.90;2.05;;;;;;;;;;4984863;28;20045;-71
2022/02/07 07:35:50;;;;;;;2.92;2.15;;;;;;;;;;4995054;28;20030;-71
2022/02/07 07:38:16;;;;;;;3.88;2.08;;;;;;;;;;4987415;28;20113;-71
2022/02/07 07:40:44;;;;;;;2.45;2.05;;;;;;;;;;4986537;28;20134;-70
2022/02/07 07:43:11;;;;;;;2.90;2.05;;;;;;;;;;4984112;28;20171;-71
2022/02/07 07:45:44;;;;;;;5.15;2.35;;;;;;;;;;4985281;28;20487;-71
2022/02/07 07:48:14;;;;;;;6.38;1.92;;;;;;;;;;4984354;28;20022;-71
2022/02/07 07:50:52;;;;;;;4.45;2.63;;;;;;;;;;4985760;28;20116;-71
2022/02/07 08:01:25;;;;;;;3.17;2.15;;;;;;;;;;4980363;28;20138;-71
2022/02/07 08:03:53;;;;;;;5.50;1.98;;;;;;;;;;4982124;28;20030;-71
2022/02/07 08:06:27;;;;;;;4.63;2.30;;;;;;;;;;4992167;28;20361;-71
2022/02/07 08:11:32;;;;;;;5.35;2.17;;;;;;;;;;4981767;28;20046;-71
2022/02/07 08:13:59;;;;;;;4.53;2.38;;;;;;;;;;4979554;28;20035;-71
2022/02/07 08:16:25;;;;;;;4.90;2.40;;;;;;;;;;4997788;28;20117;-71
2022/02/07 08:18:52;;;;;;;6.05;3.25;;;;;;;;;;4983108;28;20030;-71
2022/02/07 08:21:19;;;;;;;2.85;2.28;;;;;;;;;;4982864;28;20080;-72
2022/02/07 08:23:45;;;;;;;3.72;2.58;;;;;;;;;;4982431;28;20046;-71
2022/02/07 08:26:11;;;;;;;4.50;2.58;;;;;;;;;;4984741;28;20030;-71
2022/02/07 08:28:37;;;;;;;4.75;2.58;;;;;;;;;;4996959;28;20061;-71
2022/02/07 08:31:03;;;;;;;8.93;2.75;;;;;;;;;;4982501;28;20031;-71
2022/02/07 08:33:30;;;;;;;5.68;2.65;;;;;;;;;;4986666;28;20252;-69
2022/02/07 08:35:56;;;;;;;6.50;2.80;;;;;;;;;;4983136;28;20401;-71
2022/02/07 08:38:23;;;;;;;3.55;2.97;;;;;;;;;;4988225;28;20179;-72
2022/02/07 08:40:49;;;;;;;8.00;3.10;;;;;;;;;;5001480;28;20041;-72
2022/02/07 08:43:16;;;;;;;6.75;2.88;;;;;;;;;;4985732;28;20026;-72
2022/02/07 08:45:42;;;;;;;5.82;2.67;;;;;;;;;;4980900;28;20064;-71
2022/02/07 08:48:10;;;;;;;5.88;2.90;;;;;;;;;;4982270;28;20072;-72
2022/02/07 08:50:38;;;;;;;3.72;2.58;;;;;;;;;;4991050;28;20070;-71
2022/02/07 08:53:05;;;;;;;3.83;2.72;;;;;;;;;;4987766;28;20029;-70
2022/02/07 08:55:37;;;;;;;5.00;2.50;;;;;;;;;;4979343;28;20038;-72
2022/02/07 08:58:08;;;;;;;3.75;2.40;;;;;;;;;;4982022;28;20026;-72
2022/02/07 09:01:05;;;;;;;3.03;2.42;;;;;;;;;;4987778;28;20023;-71
2022/02/07 09:10:46;;;;;;;3.70;2.50;;;;;;;;;;4975014;28;20085;-72
2022/02/07 09:13:13;;;;;;;5.38;2.60;;;;;;;;;;4995574;28;20627;-72
2022/02/07 09:18:07;;;;;;;6.68;2.60;;;;;;;;;;4993785;28;20504;-72
2022/02/07 09:20:37;;;;;;;4.05;2.47;;;;;;;;;;4975003;28;20030;-72
2022/02/07 09:23:03;;;;;;;5.53;2.65;;;;;;;;;;4995420;28;20026;-73
2022/02/07 09:25:30;;;;;;;3.55;2.42;;;;;;;;;;4979751;28;20026;-72
2022/02/07 09:27:56;;;;;;;5.43;2.58;;;;;;;;;;4982522;28;20049;-72
2022/02/07 09:30:22;;;;;;;3.70;2.60;;;;;;;;;;4976025;28;20108;-72
2022/02/07 09:32:49;;;;;;;4.72;3.20;;;;;;;;;;4979903;28;20022;-72
2022/02/07 09:35:16;;;;;;;5.28;2.60;;;;;;;;;;4980637;28;20034;-73
2022/02/07 09:37:42;;;;;;;4.03;2.85;;;;;;;;;;4977457;28;20030;-70
2022/02/07 09:40:09;;;;;;;3.75;2.33;;;;;;;;;;4987383;28;20042;-72
2022/02/07 09:42:36;;;;;;;5.25;3.08;;;;;;;;;;4980760;28;20023;-72
2022/02/07 09:45:11;;;;;;;5.72;3.20;;;;;;;;;;4973879;28;20030;-72
2022/02/07 09:47:38;;;;;;;6.57;3.42;;;;;;;;;;4997170;28;20680;-72
2022/02/07 09:50:06;;;;;;;4.78;3.30;;;;;;;;;;4987552;28;20031;-72
2022/02/07 09:52:32;;;;;;;5.82;3.15;;;;;;;;;;4995680;28;20122;-72
2022/02/07 09:54:58;;;;;;;6.82;3.42;;;;;;;;;;4981633;28;20023;-73
2022/02/07 09:57:24;;;;;;;5.38;2.70;;;;;;;;;;4977916;28;20041;-73
2022/02/07 09:59:52;;;;;;;5.50;2.75;;;;;;;;;;4980788;28;20030;-72
2022/02/07 10:02:26;;;;;;;4.30;2.70;;;;;;;;;;4982444;28;20634;-72
2022/02/07 10:04:55;;;;;;;5.35;2.97;;;;;;;;;;4991212;28;20027;-72
2022/02/07 10:07:48;;;;;;;5.65;3.15;;;;;;;;;;4978031;28;20477;-72
2022/02/07 10:10:28;;;;;;;4.60;3.17;;;;;;;;;;4981479;28;20411;-73
2022/02/07 10:15:36;;;;;;;4.75;3.08;;;;;;;;;;4979350;28;21033;-72
2022/02/07 10:18:16;;;;;;;8.65;3.60;;;;;;;;;;4979896;28;20054;-72
2022/02/07 10:35:15;;;;;;;6.28;3.08;;;;;;;;;;4984182;28;20045;-72
2022/02/07 10:37:57;;;;;;;4.78;3.00;;;;;;;;;;4983473;28;20038;-72
2022/02/07 10:43:21;;;;;;;8.88;3.33;;;;;;;;;;4983163;28;20054;-72
2022/02/07 10:46:10;;;;;;;5.07;3.45;;;;;;;;;;5000246;28;20568;-72
2022/02/07 10:48:37;;;;;;;4.03;2.72;;;;;;;;;;5001207;28;20465;-72
2022/02/07 10:51:06;;;;;;;4.82;2.97;;;;;;;;;;5014339;28;20081;-72
2022/02/07 10:53:35;;;;;;;3.88;2.30;;;;;;;;;;5017274;28;20029;-74
2022/02/07 10:56:02;;;;;;;7.13;3.72;;;;;;;;;;5010521;28;20093;-72
2022/02/07 10:58:30;;;;;;;5.43;2.70;;;;;;;;;;4995216;28;20113;-73
2022/02/07 11:01:03;;;;;;;3.75;2.60;;;;;;;;;;5000663;28;20078;-72
2022/02/07 11:03:37;;;;;;;4.38;2.70;;;;;;;;;;4986996;28;20029;-71
2022/02/07 11:06:05;;;;;;;3.97;3.50;;;;;;;;;;4985451;28;20377;-71
2022/02/07 11:08:43;;;;;;;7.68;2.67;;;;;;;;;;4986175;28;20050;-72
2022/02/07 11:19:52;;;;;;;4.00;2.40;;;;;;;;;;4981783;28;20046;-72
2022/02/07 11:27:55;;;;;;;4.78;2.50;;;;;;;;;;4985372;28;20121;-72
2022/02/07 11:30:40;;;;;;;3.38;1.90;;;;;;;;;;4982860;28;20042;-72
2022/02/07 11:33:08;;;;;;;3.13;2.40;;;;;;;;;;5000608;28;20088;-72
2022/02/07 11:35:49;;;;;;;2.75;1.75;;;;;;;;;;4986347;28;20034;-71
2022/02/07 11:38:18;;;;;;;3.80;2.25;;;;;;;;;;4986277;28;20045;-72
2022/02/07 11:40:56;;;;;;;1.67;1.40;;;;;;;;;;4983048;28;20106;-72
2022/02/07 11:43:23;;;;;;;4.35;2.17;;;;;;;;;;4984513;28;20497;-73
2022/02/07 11:45:51;;;;;;;3.67;1.80;;;;;;;;;;4984119;28;20030;-72
2022/02/07 11:48:26;;;;;;;1.73;1.60;;;;;;;;;;4994079;28;20026;-72
2022/02/07 11:50:59;;;;;;;2.25;1.60;;;;;;;;;;4981218;28;20027;-72
2022/02/07 11:53:52;;;;;;;4.63;1.88;;;;;;;;;;4987725;28;20035;-71
2022/02/07 11:56:24;;;;;;;5.35;2.60;;;;;;;;;;4979028;28;20142;-72
2022/02/07 11:58:56;;;;;;;4.05;2.05;;;;;;;;;;4997981;28;20108;-73
2022/02/07 12:01:42;;;;;;;5.10;2.78;;;;;;;;;;4998073;28;20133;-73
2022/02/07 12:04:09;;;;;;;3.40;2.30;;;;;;;;;;4980821;28;20037;-73
2022/02/07 12:06:35;;;;;;;4.32;2.85;;;;;;;;;;4980447;28;20544;-72
2022/02/07 12:09:01;;;;;;;5.45;2.58;;;;;;;;;;4982265;28;20038;-72
2022/02/07 12:11:42;;;;;;;3.83;2.45;;;;;;;;;;4981803;28;20042;-71
2022/02/07 12:14:28;;;;;;;3.97;2.00;;;;;;;;;;4984468;28;20061;-71
2022/02/07 12:16:54;;;;;;;3.83;2.25;;;;;;;;;;4986386;28;20042;-72
2022/02/07 12:19:20;;;;;;;4.85;2.92;;;;;;;;;;4987885;28;20034;-72
2022/02/07 12:21:53;;;;;;;2.38;1.67;;;;;;;;;;4981596;28;20039;-73
2022/02/07 12:24:19;;;;;;;4.63;2.70;;;;;;;;;;4995141;28;20030;-72
2022/02/07 12:26:49;;;;;;;5.78;3.45;;;;;;;;;;4998841;28;20023;-72
2022/02/07 12:29:37;;;;;;;5.82;2.92;;;;;;;;;;4985474;28;20549;-72
2022/02/07 12:32:01;;;;;;;8.32;3.15;;;;;;;;;;4983287;28;20105;-71
2022/02/07 12:34:29;;;;;;;5.13;2.75;;;;;;;;;;4978805;28;20061;-72
2022/02/07 12:36:56;;;;;;;8.32;3.15;;;;;;;;;;4982798;28;20053;-72
2022/02/07 12:39:22;;;;;;;16.73;8.35;;;;;;;;;;4980529;28;20030;-72
2022/02/07 12:41:50;;;;;;;7.40;2.90;;;;;;;;;;4979949;28;20154;-72
2022/02/07 12:44:22;;;;;;;2.88;2.20;;;;;;;;;;4984110;28;20077;-73
2022/02/07 12:46:50;;;;;;;2.50;2.10;;;;;;;;;;4980153;28;20036;-73
2022/02/07 12:49:22;;;;;;;3.60;2.25;;;;;;;;;;4976913;28;20027;-74
2022/02/07 12:51:48;;;;;;;8.02;2.97;;;;;;;;;;4981090;28;20141;-72
2022/02/07 12:54:19;;;;;;;7.60;3.67;;;;;;;;;;4981200;28;20031;-72
2022/02/07 12:56:45;;;;;;;6.05;3.88;;;;;;;;;;4980498;28;20030;-72
2022/02/07 12:59:11;;;;;;;10.32;4.03;;;;;;;;;;4986127;28;20029;-71
2022/02/07 13:01:40;;;;;;;12.23;4.18;;;;;;;;;;4982568;28;20034;-72
2022/02/07 13:04:07;;;;;;;9.85;4.15;;;;;;;;;;4988211;28;20030;-71
2022/02/07 13:06:35;;;;;;;7.30;3.95;;;;;;;;;;5001871;28;20073;-72
2022/02/07 13:09:04;;;;;;;17.10;9.40;;;;;;;;;;4989375;28;20109;-72
2022/02/07 13:11:34;;;;;;;11.80;4.70;;;;;;;;;;4990263;28;21941;-73
2022/02/07 13:14:00;;;;;;;5.70;3.10;;;;;;;;;;4983975;28;20034;-71
2022/02/07 13:16:31;;;;;;;11.65;4.55;;;;;;;;;;4983964;28;20041;-71
2022/02/07 13:19:08;;;;;;;8.23;3.00;;;;;;;;;;4999720;28;20126;-71
2022/02/07 13:21:39;;;;;;;6.80;3.15;;;;;;;;;;4983865;28;20025;-72
2022/02/07 13:24:13;;;;;;;8.63;3.22;;;;;;;;;;5001573;28;20026;-73
2022/02/07 13:26:39;;;;;;;9.50;3.92;;;;;;;;;;4980414;28;20030;-72
2022/02/07 13:29:05;;;;;;;10.75;4.07;;;;;;;;;;4985686;28;20027;-72
2022/02/07 13:31:32;;;;;;;13.77;4.75;;;;;;;;;;4984051;28;20133;-72
2022/02/07 13:34:00;;;;;;;9.27;3.47;;;;;;;;;;4981052;28;20467;-71
2022/02/07 13:36:42;;;;;;;9.05;3.83;;;;;;;;;;4992800;28;20444;-72
2022/02/07 13:39:08;;;;;;;11.15;6.72;;;;;;;;;;4983964;28;20520;-72
2022/02/07 13:41:35;;;;;;;10.85;5.95;;;;;;;;;;4982228;28;20043;-72
2022/02/07 13:44:01;;;;;;;15.50;7.45;;;;;;;;;;4988469;28;20048;-71
2022/02/07 13:46:32;;;;;;;8.55;5.22;;;;;;;;;;4986505;28;20109;-71
2022/02/07 13:48:59;;;;;;;12.30;7.05;;;;;;;;;;4986999;28;20030;-72
2022/02/07 13:51:29;;;;;;;10.45;4.93;;;;;;;;;;4984700;28;20034;-70
2022/02/07 13:53:56;;;;;;;6.88;2.80;;;;;;;;;;4988655;28;20045;-72
2022/02/07 13:56:29;;;;;;;9.88;4.15;;;;;;;;;;4982943;28;20030;-72
2022/02/07 13:58:55;;;;;;;9.73;3.47;;;;;;;;;;4979132;28;20149;-72
2022/02/07 14:01:26;;;;;;;8.98;3.10;;;;;;;;;;4998273;28;20034;-72
2022/02/07 14:03:57;;;;;;;12.15;3.28;;;;;;;;;;4976076;28;20026;-71
2022/02/07 14:06:25;;;;;;;8.77;3.53;;;;;;;;;;4976633;28;20524;-71
2022/02/07 14:08:55;;;;;;;11.40;4.05;;;;;;;;;;4981951;28;20030;-71
2022/02/07 14:11:31;;;;;;;9.63;3.85;;;;;;;;;;4985142;28;20433;-73
2022/02/07 14:13:59;;;;;;;12.20;3.90;;;;;;;;;;4983502;28;20133;-72
2022/02/07 14:16:26;;;;;;;11.18;3.92;;;;;;;;;;4989541;28;20485;-72
2022/02/07 14:18:55;;;;;;;10.65;3.15;;;;;;;;;;5008314;28;20436;-72
2022/02/07 14:21:22;;;;;;;12.45;3.63;;;;;;;;;;5003700;28;20080;-71
2022/02/07 14:23:53;;;;;;;9.40;3.60;;;;;;;;;;4997888;28;20031;-71
2022/02/07 14:26:21;;;;;;;11.93;3.42;;;;;;;;;;5003453;28;20057;-72
2022/02/07 14:28:51;;;;;;;9.02;4.90;;;;;;;;;;4992559;28;20031;-72
2022/02/07 14:31:17;;;;;;;12.13;6.60;;;;;;;;;;5006642;28;20034;-71
2022/02/07 14:33:44;;;;;;;14.63;4.80;;;;;;;;;;4987221;28;20034;-72
2022/02/07 14:36:10;;;;;;;16.88;4.55;;;;;;;;;;4986562;28;20085;-72
2022/02/07 14:38:36;;;;;;;10.45;3.67;;;;;;;;;;4988111;28;20030;-73
2022/02/07 14:41:05;;;;;;;9.30;3.97;;;;;;;;;;4978045;28;20041;-72
2022/02/07 14:43:33;;;;;;;23.55;8.02;;;;;;;;;;4981546;28;20473;-73
2022/02/07 14:48:29;;;;;;;16.38;8.00;;;;;;;;;;4985268;28;20579;-73
2022/02/07 14:50:56;;;;;;;16.48;7.13;;;;;;;;;;4976564;28;20072;-72
2022/02/07 14:53:23;;;;;;;15.65;7.88;;;;;;;;;;4981088;28;20080;-72
2022/02/07 14:55:49;;;;;;;8.98;3.35;;;;;;;;;;4985164;28;20033;-72
2022/02/07 14:58:15;;;;;;;11.90;5.30;;;;;;;;;;4990198;28;20089;-73
2022/02/07 15:00:41;;;;;;;9.63;3.70;;;;;;;;;;4989213;28;20657;-72
2022/02/07 15:03:10;;;;;;;12.27;7.57;;;;;;;;;;4991314;28;20038;-72
2022/02/07 15:05:36;;;;;;;8.90;3.45;;;;;;;;;;4998889;28;20118;-72
2022/02/07 15:08:03;;;;;;;9.60;4.28;;;;;;;;;;4988957;28;20058;-72
2022/02/07 15:10:31;;;;;;;13.52;4.00;;;;;;;;;;4987475;28;21029;-72
2022/02/07 15:12:58;;;;;;;10.43;3.13;;;;;;;;;;4986325;28;20034;-73
2022/02/07 15:15:24;;;;;;;9.60;3.60;;;;;;;;;;4985100;28;20026;-72
2022/02/07 15:17:54;;;;;;;10.18;3.88;;;;;;;;;;4983975;28;20038;-73
2022/02/07 15:20:20;;;;;;;13.13;3.88;;;;;;;;;;4982915;28;20112;-72
2022/02/07 15:22:48;;;;;;;9.10;3.60;;;;;;;;;;4988411;28;20508;-71
2022/02/07 15:25:18;;;;;;;10.65;4.00;;;;;;;;;;4984777;28;20030;-73
2022/02/07 15:27:48;;;;;;;8.27;4.15;;;;;;;;;;5000408;28;20034;-72
2022/02/07 15:30:14;;;;;;;9.35;3.45;;;;;;;;;;4983268;28;21565;-72
2022/02/07 15:32:44;;;;;;;16.20;3.60;;;;;;;;;;4987384;28;20673;-72
2022/02/07 15:35:11;;;;;;;11.40;5.30;;;;;;;;;;4989360;28;20110;-72
2022/02/07 15:37:37;;;;;;;34.33;14.93;;;;;;;;;;4998777;28;20027;-72
2022/02/07 15:40:04;;;;;;;45.75;18.95;;;;;;;;;;4998535;28;20026;-72
2022/02/07 15:42:30;;;;;;;19.88;7.63;;;;;;;;;;4992979;28;20838;-72
2022/02/07 15:45:00;;;;;;;8.68;4.70;;;;;;;;;;4992282;28;20034;-73
2022/02/07 15:47:30;;;;;;;10.35;3.47;;;;;;;;;;4982615;28;20572;-72
2022/02/07 15:49:56;;;;;;;7.07;3.03;;;;;;;;;;4979687;28;20377;-72
2022/02/07 15:52:22;;;;;;;9.90;4.53;;;;;;;;;;4982443;28;20062;-73
2022/02/07 15:54:52;;;;;;;9.95;3.55;;;;;;;;;;4981739;28;20042;-73
2022/02/07 15:57:18;;;;;;;10.90;4.60;;;;;;;;;;4975484;28;20117;-72
2022/02/07 15:59:44;;;;;;;7.63;3.40;;;;;;;;;;4990759;28;20038;-72
2022/02/07 16:02:10;;;;;;;9.63;3.22;;;;;;;;;;4977892;28;20094;-72
2022/02/07 16:04:41;;;;;;;9.70;3.35;;;;;;;;;;4985168;28;20033;-73
2022/02/07 16:07:08;;;;;;;8.77;3.20;;;;;;;;;;4980464;28;20030;-73
2022/02/07 16:09:34;;;;;;;11.23;4.00;;;;;;;;;;4986464;28;20037;-72
2022/02/07 16:12:08;;;;;;;7.22;4.35;;;;;;;;;;4990802;28;20881;-73
2022/02/07 16:14:35;;;;;;;10.90;3.22;;;;;;;;;;4979970;28;20031;-73
2022/02/07 16:17:01;;;;;;;9.32;4.32;;;;;;;;;;4985437;28;20033;-72
2022/02/07 16:19:29;;;;;;;7.95;3.17;;;;;;;;;;4980935;28;20422;-72
2022/02/07 16:21:55;;;;;;;7.25;2.80;;;;;;;;;;4981470;28;20062;-72
2022/02/07 16:24:21;;;;;;;7.80;3.50;;;;;;;;;;4982221;28;20031;-72
2022/02/07 16:26:48;;;;;;;10.15;3.60;;;;;;;;;;5000784;28;20468;-72
2022/02/07 16:29:14;;;;;;;11.15;3.30;;;;;;;;;;4983948;28;20491;-73
2022/02/07 16:31:41;;;;;;;11.60;3.80;;;;;;;;;;4995863;28;20034;-72
2022/02/07 16:34:08;;;;;;;8.88;3.72;;;;;;;;;;4988754;28;20045;-72
2022/02/07 16:36:35;;;;;;;10.52;8.80;;;;;;;;;;4982742;28;20074;-72
2022/02/07 16:39:01;;;;;;;136.98;71.97;;;;;;;;;;4983160;28;20057;-73
2022/02/07 16:41:33;;;;;;;103.85;58.15;;;;;;;;;;4999571;28;20031;-72
2022/02/07 16:44:01;;;;;;;264.08;146.77;;;;;;;;;;4973586;28;20026;-73
2022/02/07 16:46:48;;;;;;;77.72;49.67;;;;;;;;;;4976395;28;20022;-72
2022/02/07 16:49:19;;;;;;;77.63;45.75;;;;;;;;;;4980404;28;20050;-73
2022/02/07 16:51:46;;;;;;;122.22;77.63;;;;;;;;;;4981191;28;20082;-72
2022/02/07 16:54:12;;;;;;;78.13;61.45;;;;;;;;;;4981580;28;20438;-72
2022/02/07 16:56:39;;;;;;;28.63;21.27;;;;;;;;;;4982703;28;20034;-72
2022/02/07 16:59:06;;;;;;;21.77;13.73;;;;;;;;;;4980105;28;20074;-73
2022/02/07 17:01:32;;;;;;;14.27;11.27;;;;;;;;;;4980382;28;20457;-73
2022/02/07 17:03:58;;;;;;;10.57;7.00;;;;;;;;;;4981878;28;20034;-72
2022/02/07 17:06:24;;;;;;;8.15;5.15;;;;;;;;;;4987707;28;20389;-72
2022/02/07 17:08:51;;;;;;;13.30;6.18;;;;;;;;;;4990634;28;20030;-74
2022/02/07 17:11:18;;;;;;;9.63;4.60;;;;;;;;;;4983880;28;20517;-73
2022/02/07 17:13:44;;;;;;;11.15;9.32;;;;;;;;;;4979715;28;20031;-73
2022/02/07 17:16:11;;;;;;;12.15;6.97;;;;;;;;;;4980978;28;20023;-72
2022/02/07 17:18:37;;;;;;;9.10;5.82;;;;;;;;;;4988265;28;20034;-72
2022/02/07 17:21:03;;;;;;;13.48;6.32;;;;;;;;;;4984239;28;20031;-71